Time;durP1;ratioP1;P1;durP2;ratioP2;P2;SDS_P1;SDS_P2;PMS_P1;PMS_P2;Temp;Humidity;BMP_temperature;BMP_pressure;BME280_temperature;BME280_humidity;BME280_pressure;Samples;Min_cycle;Max_cycle;Signal;HPM_P1;HPM_P2
2022/04/03 00:01:00;;;;;;;;;;;4.00;90.50;;;;;;2056708;28;19913;-68
2022/04/03 00:02:00;;;;;;;;;;;4.00;90.60;;;;;;2056429;28;19932;-68
2022/04/03 00:03:02;;;;;;;;;;;4.00;90.60;;;;;;2056219;28;19913;-68
2022/04/03 00:04:02;;;;;;;;;;;4.00;90.90;;;;;;2058963;28;19913;-68
2022/04/03 00:05:03;;;;;;;;;;;4.00;90.60;;;;;;2056196;28;19912;-68
2022/04/03 00:06:04;;;;;;;;;;;4.00;90.90;;;;;;2057794;28;19945;-68
2022/04/03 00:07:05;;;;;;;;;;;4.00;91.10;;;;;;2057696;28;19917;-68
2022/04/03 00:08:06;;;;;;;;;;;4.00;91.00;;;;;;2056224;28;19906;-68
2022/04/03 00:09:06;;;;;;;;;;;4.00;91.30;;;;;;2056952;28;20380;-68
2022/04/03 00:10:07;;;;;;;;;;;4.00;91.60;;;;;;2056651;28;19910;-68
2022/04/03 00:11:08;;;;;;;;;;;4.00;91.40;;;;;;2055929;28;19950;-68
2022/04/03 00:12:09;;;;;;;;;;;4.00;91.20;;;;;;2056102;28;19964;-68
2022/04/03 00:13:09;;;;;;;;;;;4.00;91.30;;;;;;2058934;28;20400;-68
2022/04/03 00:14:10;;;;;;;;;;;4.00;91.40;;;;;;2056959;28;19993;-68
2022/04/03 00:15:10;;;;;;;;;;;4.00;91.60;;;;;;2057165;28;19945;-68
2022/04/03 00:16:11;;;;;;;;;;;4.00;91.70;;;;;;2057787;28;19906;-68
2022/04/03 00:17:11;;;;;;;;;;;3.90;91.50;;;;;;2055879;28;19914;-68
2022/04/03 00:18:12;;;;;;;;;;;4.00;91.60;;;;;;2055911;28;20664;-68
2022/04/03 00:19:12;;;;;;;;;;;4.00;91.60;;;;;;2055396;28;19910;-68
2022/04/03 00:20:13;;;;;;;;;;;4.00;91.50;;;;;;2055859;28;19910;-68
2022/04/03 00:21:14;;;;;;;;;;;3.90;91.60;;;;;;2055853;28;19909;-68
2022/04/03 00:22:14;;;;;;;;;;;3.90;91.70;;;;;;2054917;28;20389;-68
2022/04/03 00:23:15;;;;;;;;;;;3.90;91.60;;;;;;2057389;28;20306;-68
2022/04/03 00:24:17;;;;;;;;;;;3.90;91.80;;;;;;2056095;28;19914;-68
2022/04/03 00:25:18;;;;;;;;;;;4.00;92.00;;;;;;2055621;28;19913;-68
2022/04/03 00:26:18;;;;;;;;;;;3.90;91.90;;;;;;2052350;28;20412;-68
2022/04/03 00:27:19;;;;;;;;;;;3.90;92.30;;;;;;2055706;28;20612;-68
2022/04/03 00:28:20;;;;;;;;;;;3.90;92.40;;;;;;2057990;28;19933;-68
2022/04/03 00:29:20;;;;;;;;;;;3.90;92.50;;;;;;2055785;28;19949;-68
2022/04/03 00:30:21;;;;;;;;;;;4.00;92.50;;;;;;2056083;28;19933;-68
2022/04/03 00:31:22;;;;;;;;;;;4.00;92.70;;;;;;2055693;28;19912;-68
2022/04/03 00:32:23;;;;;;;;;;;4.00;92.80;;;;;;2055931;28;19914;-68
2022/04/03 00:33:24;;;;;;;;;;;3.90;93.10;;;;;;2055747;28;19953;-68
2022/04/03 00:34:25;;;;;;;;;;;3.90;93.10;;;;;;2055821;28;19918;-68
2022/04/03 00:35:26;;;;;;;;;;;3.90;93.40;;;;;;2056550;28;20008;-68
2022/04/03 00:36:26;;;;;;;;;;;3.90;93.70;;;;;;2059232;28;19914;-68
2022/04/03 00:37:27;;;;;;;;;;;3.90;93.70;;;;;;2056964;28;19910;-68
2022/04/03 00:38:27;;;;;;;;;;;3.90;93.60;;;;;;2057781;28;20420;-68
2022/04/03 00:39:28;;;;;;;;;;;3.90;93.30;;;;;;2055731;28;20183;-68
2022/04/03 00:40:28;;;;;;;;;;;3.90;93.60;;;;;;2056679;28;20400;-68
2022/04/03 00:41:28;;;;;;;;;;;3.90;93.60;;;;;;2055869;28;19906;-68
2022/04/03 00:42:32;;;;;;;;;;;3.90;93.60;;;;;;2057775;28;19937;-67
2022/04/03 00:43:33;;;;;;;;;;;3.90;92.80;;;;;;2058679;28;20068;-68
2022/04/03 00:44:35;;;;;;;;;;;3.90;92.50;;;;;;2058938;28;19952;-68
2022/04/03 00:45:35;;;;;;;;;;;3.90;92.60;;;;;;2053891;28;19921;-68
2022/04/03 00:46:36;;;;;;;;;;;3.90;92.40;;;;;;2057498;28;19964;-68
2022/04/03 00:47:37;;;;;;;;;;;3.90;92.50;;;;;;2056943;28;19914;-68
2022/04/03 00:48:38;;;;;;;;;;;3.90;92.60;;;;;;2056456;28;19910;-68
2022/04/03 00:49:38;;;;;;;;;;;3.90;92.70;;;;;;2056297;28;19914;-68
2022/04/03 00:50:39;;;;;;;;;;;3.90;92.80;;;;;;2057097;28;19925;-68
2022/04/03 00:51:40;;;;;;;;;;;3.90;92.90;;;;;;2055733;28;19933;-68
2022/04/03 00:52:40;;;;;;;;;;;3.80;93.00;;;;;;2056685;28;20364;-68
2022/04/03 00:53:40;;;;;;;;;;;3.90;93.20;;;;;;2057554;28;20032;-68
2022/04/03 00:54:41;;;;;;;;;;;3.80;93.20;;;;;;2058927;28;19953;-68
2022/04/03 00:55:42;;;;;;;;;;;3.90;93.00;;;;;;2058182;28;20404;-68
2022/04/03 00:56:42;;;;;;;;;;;3.80;93.00;;;;;;2057857;28;19921;-68
2022/04/03 00:57:43;;;;;;;;;;;3.80;93.20;;;;;;2057721;28;19965;-68
2022/04/03 00:58:43;;;;;;;;;;;3.80;93.10;;;;;;2060563;28;19932;-68
2022/04/03 00:59:44;;;;;;;;;;;3.90;93.50;;;;;;2060465;28;19993;-68
2022/04/03 01:00:44;;;;;;;;;;;3.80;93.30;;;;;;2058123;28;19910;-67
2022/04/03 01:01:45;;;;;;;;;;;3.90;93.20;;;;;;2058032;28;19906;-68
2022/04/03 01:02:46;;;;;;;;;;;3.90;93.50;;;;;;2058716;28;19917;-68
2022/04/03 01:03:47;;;;;;;;;;;3.80;93.30;;;;;;2058507;28;19917;-68
2022/04/03 01:04:47;;;;;;;;;;;3.90;93.40;;;;;;2057422;28;20344;-68
2022/04/03 01:05:48;;;;;;;;;;;3.90;93.60;;;;;;2056910;28;19906;-68
2022/04/03 01:06:48;;;;;;;;;;;3.80;93.70;;;;;;2060757;28;19906;-68
2022/04/03 01:07:49;;;;;;;;;;;3.80;93.90;;;;;;2060344;28;19906;-68
2022/04/03 01:08:49;;;;;;;;;;;3.90;94.00;;;;;;2058290;28;19932;-68
2022/04/03 01:09:49;;;;;;;;;;;3.80;94.10;;;;;;2059582;28;19984;-68
2022/04/03 01:10:50;;;;;;;;;;;3.80;94.00;;;;;;2058500;28;19906;-68
2022/04/03 01:11:51;;;;;;;;;;;3.90;94.30;;;;;;2058450;28;19910;-68
2022/04/03 01:12:51;;;;;;;;;;;3.80;95.00;;;;;;2056955;28;19906;-68
2022/04/03 01:13:52;;;;;;;;;;;3.90;94.80;;;;;;2056737;28;19914;-68
2022/04/03 01:14:52;;;;;;;;;;;3.80;94.60;;;;;;2060705;28;19956;-68
2022/04/03 01:15:59;;;;;;;;;;;3.90;94.70;;;;;;2059625;28;19996;-68
2022/04/03 01:16:59;;;;;;;;;;;3.90;94.90;;;;;;2059646;28;20292;-68
2022/04/03 01:18:00;;;;;;;;;;;3.90;94.80;;;;;;2057008;28;19910;-68
2022/04/03 01:19:00;;;;;;;;;;;3.90;94.60;;;;;;2056985;28;19910;-68
2022/04/03 01:20:01;;;;;;;;;;;3.90;94.30;;;;;;2056950;28;19910;-68
2022/04/03 01:21:01;;;;;;;;;;;3.90;94.50;;;;;;2057950;28;19913;-68
2022/04/03 01:22:02;;;;;;;;;;;3.90;94.50;;;;;;2057149;28;19961;-68
2022/04/03 01:23:02;;;;;;;;;;;3.90;94.50;;;;;;2068001;28;20372;-68
2022/04/03 01:24:03;;;;;;;;;;;3.80;94.80;;;;;;2067434;28;20385;-68
2022/04/03 01:25:04;;;;;;;;;;;3.90;95.40;;;;;;2067021;28;20685;-68
2022/04/03 01:26:05;;;;;;;;;;;3.90;95.70;;;;;;2065446;28;19906;-68
2022/04/03 01:27:06;;;;;;;;;;;3.90;95.90;;;;;;2055994;28;19910;-68
2022/04/03 01:28:07;;;;;;;;;;;3.80;96.00;;;;;;2060047;28;20074;-68
2022/04/03 01:29:08;;;;;;;;;;;3.80;96.10;;;;;;2057653;28;19913;-68
2022/04/03 01:30:12;;;;;;;;;;;3.80;95.80;;;;;;2056882;28;20297;-68
2022/04/03 01:31:12;;;;;;;;;;;3.80;95.60;;;;;;2060369;28;19953;-68
2022/04/03 01:32:13;;;;;;;;;;;3.80;95.50;;;;;;2059787;28;19921;-68
2022/04/03 01:33:14;;;;;;;;;;;3.80;95.90;;;;;;2059516;28;19906;-68
2022/04/03 01:34:14;;;;;;;;;;;3.80;96.00;;;;;;2057009;28;19906;-68
2022/04/03 01:35:15;;;;;;;;;;;3.80;95.70;;;;;;2058053;28;19914;-68
2022/04/03 01:36:16;;;;;;;;;;;3.80;95.60;;;;;;2057675;28;19921;-68
2022/04/03 01:37:17;;;;;;;;;;;3.80;95.60;;;;;;2057507;28;20633;-68
2022/04/03 01:38:17;;;;;;;;;;;3.80;95.40;;;;;;2056737;28;19906;-68
2022/04/03 01:39:18;;;;;;;;;;;3.80;95.20;;;;;;2057032;28;19913;-68
2022/04/03 01:40:19;;;;;;;;;;;3.80;95.20;;;;;;2056761;28;20362;-68
2022/04/03 01:41:19;;;;;;;;;;;3.80;95.20;;;;;;2052473;28;19906;-68
2022/04/03 01:42:20;;;;;;;;;;;3.80;95.20;;;;;;2053934;28;19910;-68
2022/04/03 01:43:20;;;;;;;;;;;3.80;95.60;;;;;;2056543;28;19910;-68
2022/04/03 01:44:21;;;;;;;;;;;3.80;95.80;;;;;;2057504;28;19956;-68
2022/04/03 01:45:21;;;;;;;;;;;3.80;95.90;;;;;;2056383;28;19968;-68
2022/04/03 01:46:22;;;;;;;;;;;3.80;95.90;;;;;;2057868;28;19909;-68
2022/04/03 01:47:22;;;;;;;;;;;3.80;96.00;;;;;;2059516;28;19906;-68
2022/04/03 01:48:23;;;;;;;;;;;3.80;95.20;;;;;;2057955;28;19956;-67
2022/04/03 01:49:23;;;;;;;;;;;3.80;95.30;;;;;;2059483;28;19913;-67
2022/04/03 01:50:24;;;;;;;;;;;3.70;95.40;;;;;;2057991;28;20266;-67
2022/04/03 01:51:24;;;;;;;;;;;3.70;95.30;;;;;;2058078;28;19906;-67
2022/04/03 01:52:25;;;;;;;;;;;3.70;94.90;;;;;;2057152;28;19945;-67
2022/04/03 01:53:26;;;;;;;;;;;3.70;95.00;;;;;;2058697;28;19910;-68
2022/04/03 01:54:27;;;;;;;;;;;3.70;95.30;;;;;;2060525;28;19910;-68
2022/04/03 01:55:28;;;;;;;;;;;3.70;95.60;;;;;;2059649;28;19917;-68
2022/04/03 01:56:28;;;;;;;;;;;3.70;95.70;;;;;;2058625;28;19910;-68
2022/04/03 01:57:29;;;;;;;;;;;3.70;95.70;;;;;;2059194;28;19906;-68
2022/04/03 01:58:30;;;;;;;;;;;3.60;95.60;;;;;;2058050;28;20449;-68
2022/04/03 01:59:30;;;;;;;;;;;3.70;95.70;;;;;;2057471;28;19906;-68
2022/04/03 02:00:31;;;;;;;;;;;3.70;95.80;;;;;;2057161;28;19910;-68
2022/04/03 02:01:32;;;;;;;;;;;3.70;96.10;;;;;;2058846;28;20286;-68
2022/04/03 02:02:33;;;;;;;;;;;3.70;96.20;;;;;;2059702;28;19980;-68
2022/04/03 02:03:33;;;;;;;;;;;3.70;96.20;;;;;;2066808;28;19961;-68
2022/04/03 02:04:34;;;;;;;;;;;3.60;96.20;;;;;;2063871;28;19913;-68
2022/04/03 02:05:34;;;;;;;;;;;3.60;96.60;;;;;;2058180;28;19941;-68
2022/04/03 02:06:35;;;;;;;;;;;3.60;96.60;;;;;;2057912;28;19910;-68
2022/04/03 02:07:35;;;;;;;;;;;3.60;96.60;;;;;;2057729;28;19910;-68
2022/04/03 02:08:36;;;;;;;;;;;3.60;96.60;;;;;;2056946;28;19918;-68
2022/04/03 02:09:37;;;;;;;;;;;3.60;96.60;;;;;;2058302;28;19932;-68
2022/04/03 02:10:37;;;;;;;;;;;3.60;96.70;;;;;;2059514;28;19924;-68
2022/04/03 02:11:38;;;;;;;;;;;3.60;97.00;;;;;;2058443;28;19920;-68
2022/04/03 02:12:39;;;;;;;;;;;3.60;97.60;;;;;;2058745;28;19948;-67
2022/04/03 02:13:40;;;;;;;;;;;3.60;97.70;;;;;;2056924;28;20083;-67
2022/04/03 02:14:40;;;;;;;;;;;3.60;97.00;;;;;;2057954;28;19944;-67
2022/04/03 02:15:41;;;;;;;;;;;3.60;97.20;;;;;;2057205;28;19910;-67
2022/04/03 02:16:41;;;;;;;;;;;3.60;97.70;;;;;;2056977;28;19918;-67
2022/04/03 02:17:41;;;;;;;;;;;3.60;97.40;;;;;;2060291;28;19909;-67
2022/04/03 02:18:42;;;;;;;;;;;3.60;97.10;;;;;;2059838;28;19905;-67
2022/04/03 02:19:43;;;;;;;;;;;3.60;97.30;;;;;;2058508;28;19980;-67
2022/04/03 02:20:43;;;;;;;;;;;3.60;98.00;;;;;;2058915;28;19984;-67
2022/04/03 02:21:44;;;;;;;;;;;3.60;97.70;;;;;;2065641;28;20457;-68
2022/04/03 02:22:44;;;;;;;;;;;3.60;97.90;;;;;;2065597;28;19996;-67
2022/04/03 02:23:45;;;;;;;;;;;3.60;98.10;;;;;;2057278;28;19910;-68
2022/04/03 02:24:45;;;;;;;;;;;3.60;98.20;;;;;;2056916;28;19910;-68
2022/04/03 02:25:49;;;;;;;;;;;3.60;98.60;;;;;;2059524;28;19909;-68
2022/04/03 02:26:50;;;;;;;;;;;3.60;99.30;;;;;;2057185;28;19905;-68
2022/04/03 02:27:52;;;;;;;;;;;3.60;99.20;;;;;;2059037;28;19913;-68
2022/04/03 02:28:53;;;;;;;;;;;3.60;99.20;;;;;;2058333;28;19917;-68
2022/04/03 02:29:53;;;;;;;;;;;3.60;99.50;;;;;;2057911;28;19910;-68
2022/04/03 02:30:53;;;;;;;;;;;3.60;99.70;;;;;;2058028;28;20045;-68
2022/04/03 02:31:54;;;;;;;;;;;3.50;99.70;;;;;;2057055;28;20357;-68
2022/04/03 02:32:54;;;;;;;;;;;3.50;99.70;;;;;;2056802;28;19917;-68
2022/04/03 02:33:55;;;;;;;;;;;3.50;99.90;;;;;;2060124;28;20405;-68
2022/04/03 02:34:55;;;;;;;;;;;3.50;99.90;;;;;;2058059;28;19914;-68
2022/04/03 02:35:56;;;;;;;;;;;3.50;99.90;;;;;;2058361;28;19961;-68
2022/04/03 02:36:56;;;;;;;;;;;3.50;99.90;;;;;;2058715;28;19916;-68
2022/04/03 02:37:57;;;;;;;;;;;3.50;99.90;;;;;;2057697;28;19913;-68
2022/04/03 02:38:57;;;;;;;;;;;3.50;99.90;;;;;;2057878;28;19932;-68
2022/04/03 02:39:58;;;;;;;;;;;3.50;99.90;;;;;;2056373;28;19910;-68
2022/04/03 02:40:58;;;;;;;;;;;3.40;99.90;;;;;;2056940;28;19906;-68
2022/04/03 02:41:59;;;;;;;;;;;3.40;99.90;;;;;;2059937;28;19959;-68
2022/04/03 02:42:59;;;;;;;;;;;3.40;99.90;;;;;;2058793;28;19988;-67
2022/04/03 02:44:00;;;;;;;;;;;3.40;99.90;;;;;;2058957;28;19910;-68
2022/04/03 02:45:01;;;;;;;;;;;3.40;99.90;;;;;;2058535;28;20277;-68
2022/04/03 02:46:01;;;;;;;;;;;3.40;99.90;;;;;;2057273;28;19913;-68
2022/04/03 02:47:02;;;;;;;;;;;3.40;99.90;;;;;;2057592;28;19912;-68
2022/04/03 02:48:02;;;;;;;;;;;3.30;99.90;;;;;;2056660;28;20470;-68
2022/04/03 02:49:03;;;;;;;;;;;3.30;99.90;;;;;;2056819;28;19906;-67
2022/04/03 02:50:04;;;;;;;;;;;3.30;99.90;;;;;;2056542;28;20292;-67
2022/04/03 02:51:05;;;;;;;;;;;3.30;99.90;;;;;;2056517;28;19948;-67
2022/04/03 02:52:05;;;;;;;;;;;3.30;99.90;;;;;;2056494;28;20381;-67
2022/04/03 02:53:06;;;;;;;;;;;3.30;99.90;;;;;;2056408;28;19916;-67
2022/04/03 02:54:07;;;;;;;;;;;3.30;99.90;;;;;;2057952;28;19906;-67
2022/04/03 02:55:08;;;;;;;;;;;3.20;99.90;;;;;;2057448;28;19909;-67
2022/04/03 02:56:09;;;;;;;;;;;3.20;99.90;;;;;;2057097;28;20000;-67
2022/04/03 02:57:09;;;;;;;;;;;3.20;99.90;;;;;;2056473;28;19913;-67
2022/04/03 02:58:10;;;;;;;;;;;3.20;99.90;;;;;;2059513;28;19906;-67
2022/04/03 02:59:10;;;;;;;;;;;3.20;99.90;;;;;;2059329;28;19906;-67
2022/04/03 03:00:14;;;;;;;;;;;3.20;99.90;;;;;;2058780;28;19980;-67
2022/04/03 03:01:15;;;;;;;;;;;3.20;99.90;;;;;;2055705;28;19906;-67
2022/04/03 03:02:15;;;;;;;;;;;3.20;99.90;;;;;;2058127;28;19910;-67
2022/04/03 03:03:16;;;;;;;;;;;3.10;99.90;;;;;;2056972;28;19914;-67
2022/04/03 03:04:16;;;;;;;;;;;3.10;99.90;;;;;;2056793;28;19914;-67
2022/04/03 03:05:17;;;;;;;;;;;3.10;99.90;;;;;;2055946;28;19956;-67
2022/04/03 03:06:18;;;;;;;;;;;3.10;99.90;;;;;;2059927;28;19906;-67
2022/04/03 03:07:20;;;;;;;;;;;3.10;99.90;;;;;;2059132;28;19906;-67
2022/04/03 03:08:21;;;;;;;;;;;3.10;99.90;;;;;;2058677;28;19918;-67
2022/04/03 03:09:21;;;;;;;;;;;3.10;99.90;;;;;;2057894;28;19956;-67
2022/04/03 03:10:23;;;;;;;;;;;3.10;99.90;;;;;;2056760;28;19972;-67
2022/04/03 03:11:23;;;;;;;;;;;3.00;99.90;;;;;;2056289;28;19940;-67
2022/04/03 03:12:24;;;;;;;;;;;3.00;99.90;;;;;;2056445;28;19910;-67
2022/04/03 03:13:24;;;;;;;;;;;3.00;99.90;;;;;;2056732;28;19960;-67
2022/04/03 03:14:25;;;;;;;;;;;3.00;99.90;;;;;;2057899;28;20341;-68
2022/04/03 03:15:25;;;;;;;;;;;3.00;99.90;;;;;;2057930;28;19906;-67
2022/04/03 03:16:26;;;;;;;;;;;3.00;99.90;;;;;;2058917;28;19961;-67
2022/04/03 03:17:27;;;;;;;;;;;2.90;99.90;;;;;;2057746;28;19910;-67
2022/04/03 03:18:27;;;;;;;;;;;2.90;99.90;;;;;;2057015;28;19910;-67
2022/04/03 03:19:28;;;;;;;;;;;2.90;99.90;;;;;;2056715;28;19914;-67
2022/04/03 03:20:28;;;;;;;;;;;2.90;99.90;;;;;;2058115;28;19986;-67
2022/04/03 03:21:29;;;;;;;;;;;2.80;99.90;;;;;;2059581;28;20399;-67
2022/04/03 03:22:29;;;;;;;;;;;2.90;99.90;;;;;;2058320;28;20377;-67
2022/04/03 03:23:29;;;;;;;;;;;2.80;99.90;;;;;;2058691;28;19906;-67
2022/04/03 03:24:30;;;;;;;;;;;2.80;99.90;;;;;;2058344;28;20376;-67
2022/04/03 03:25:30;;;;;;;;;;;2.80;99.90;;;;;;2064232;28;19945;-67
2022/04/03 03:26:31;;;;;;;;;;;2.80;99.90;;;;;;2064628;28;19968;-67
2022/04/03 03:27:32;;;;;;;;;;;2.80;99.90;;;;;;2054114;28;19906;-67
2022/04/03 03:28:32;;;;;;;;;;;2.80;99.90;;;;;;2058541;28;19953;-67
2022/04/03 03:29:32;;;;;;;;;;;2.80;99.90;;;;;;2059935;28;20370;-67
2022/04/03 03:30:34;;;;;;;;;;;2.80;99.90;;;;;;2059052;28;19914;-67
2022/04/03 03:31:34;;;;;;;;;;;2.70;99.90;;;;;;2056359;28;19906;-67
2022/04/03 03:32:35;;;;;;;;;;;2.80;99.90;;;;;;2057730;28;19921;-67
2022/04/03 03:33:35;;;;;;;;;;;2.80;99.90;;;;;;2057437;28;20324;-67
2022/04/03 03:34:36;;;;;;;;;;;2.70;99.90;;;;;;2056924;28;19920;-67
2022/04/03 03:35:36;;;;;;;;;;;2.70;99.90;;;;;;2055748;28;20844;-67
2022/04/03 03:36:37;;;;;;;;;;;2.70;99.90;;;;;;2059100;28;19906;-67
2022/04/03 03:37:37;;;;;;;;;;;2.70;99.90;;;;;;2060053;28;19961;-68
2022/04/03 03:38:38;;;;;;;;;;;2.70;99.90;;;;;;2058460;28;20403;-67
2022/04/03 03:39:38;;;;;;;;;;;2.70;99.90;;;;;;2057635;28;19953;-67
2022/04/03 03:40:39;;;;;;;;;;;2.70;99.90;;;;;;2057568;28;19914;-67
2022/04/03 03:41:39;;;;;;;;;;;2.70;99.90;;;;;;2056518;28;19910;-67
2022/04/03 03:42:41;;;;;;;;;;;2.60;99.90;;;;;;2056702;28;19917;-67
2022/04/03 03:43:42;;;;;;;;;;;2.60;99.90;;;;;;2056369;28;19906;-67
2022/04/03 03:44:42;;;;;;;;;;;2.60;99.90;;;;;;2056207;28;20440;-67
2022/04/03 03:45:43;;;;;;;;;;;2.60;99.90;;;;;;2058900;28;20355;-67
2022/04/03 03:46:43;;;;;;;;;;;2.60;99.90;;;;;;2058586;28;19945;-67
2022/04/03 03:47:44;;;;;;;;;;;2.60;99.90;;;;;;2058251;28;19957;-67
2022/04/03 03:48:45;;;;;;;;;;;2.50;99.90;;;;;;2057434;28;19910;-67
2022/04/03 03:49:45;;;;;;;;;;;2.60;99.90;;;;;;2057126;28;20009;-67
2022/04/03 03:50:45;;;;;;;;;;;2.60;99.90;;;;;;2056151;28;19914;-67
2022/04/03 03:51:46;;;;;;;;;;;2.50;99.90;;;;;;2056418;28;19914;-67
2022/04/03 03:52:47;;;;;;;;;;;2.50;99.90;;;;;;2054616;28;19914;-67
2022/04/03 03:53:47;;;;;;;;;;;2.50;99.90;;;;;;2059185;28;19905;-67
2022/04/03 03:54:48;;;;;;;;;;;2.50;99.90;;;;;;2058379;28;19932;-67
2022/04/03 03:55:49;;;;;;;;;;;2.50;99.90;;;;;;2057313;28;19910;-67
2022/04/03 03:56:49;;;;;;;;;;;2.50;99.90;;;;;;2057797;28;20390;-67
2022/04/03 03:57:51;;;;;;;;;;;2.40;99.90;;;;;;2057385;28;20337;-67
2022/04/03 03:58:52;;;;;;;;;;;2.40;99.90;;;;;;2053556;28;19939;-67
2022/04/03 03:59:52;;;;;;;;;;;2.40;99.90;;;;;;2056060;28;19906;-67
2022/04/03 04:00:53;;;;;;;;;;;2.40;99.90;;;;;;2056502;28;19906;-67
2022/04/03 04:01:53;;;;;;;;;;;2.40;99.90;;;;;;2059414;28;20340;-67
2022/04/03 04:02:54;;;;;;;;;;;2.40;99.90;;;;;;2058364;28;19953;-67
2022/04/03 04:03:54;;;;;;;;;;;2.40;99.90;;;;;;2058223;28;19960;-67
2022/04/03 04:04:55;;;;;;;;;;;2.30;99.90;;;;;;2056160;28;20432;-67
2022/04/03 04:05:55;;;;;;;;;;;2.30;99.90;;;;;;2055709;28;19909;-67
2022/04/03 04:06:56;;;;;;;;;;;2.30;99.90;;;;;;2055779;28;19957;-67
2022/04/03 04:07:56;;;;;;;;;;;2.30;99.90;;;;;;2056055;28;19916;-67
2022/04/03 04:08:57;;;;;;;;;;;2.30;99.90;;;;;;2057500;28;19958;-67
2022/04/03 04:09:57;;;;;;;;;;;2.30;99.90;;;;;;2058712;28;20527;-67
2022/04/03 04:10:58;;;;;;;;;;;2.30;99.90;;;;;;2058802;28;20353;-67
2022/04/03 04:11:58;;;;;;;;;;;2.30;99.90;;;;;;2057805;28;19945;-67
2022/04/03 04:12:59;;;;;;;;;;;2.20;99.90;;;;;;2057693;28;20373;-67
2022/04/03 04:14:00;;;;;;;;;;;2.20;99.90;;;;;;2056337;28;19906;-67
2022/04/03 04:15:00;;;;;;;;;;;2.20;99.90;;;;;;2056816;28;19917;-67
2022/04/03 04:16:00;;;;;;;;;;;2.10;99.90;;;;;;2055544;28;19910;-67
2022/04/03 04:17:01;;;;;;;;;;;2.20;99.90;;;;;;2058420;28;20361;-67
2022/04/03 04:18:02;;;;;;;;;;;2.10;99.90;;;;;;2058843;28;19906;-67
2022/04/03 04:19:02;;;;;;;;;;;2.10;99.90;;;;;;2055892;28;19910;-67
2022/04/03 04:20:04;;;;;;;;;;;2.10;99.90;;;;;;2057736;28;20288;-67
2022/04/03 04:21:06;;;;;;;;;;;2.10;99.90;;;;;;2057749;28;19913;-67
2022/04/03 04:22:06;;;;;;;;;;;2.10;99.90;;;;;;2056815;28;19938;-67
2022/04/03 04:23:07;;;;;;;;;;;2.00;99.90;;;;;;2056559;28;20469;-67
2022/04/03 04:24:07;;;;;;;;;;;2.00;99.90;;;;;;2055815;28;19917;-67
2022/04/03 04:25:08;;;;;;;;;;;2.00;99.90;;;;;;2059251;28;20623;-67
2022/04/03 04:26:09;;;;;;;;;;;2.00;99.90;;;;;;2058795;28;20073;-67
2022/04/03 04:27:09;;;;;;;;;;;2.00;99.90;;;;;;2056618;28;19909;-67
2022/04/03 04:28:10;;;;;;;;;;;2.00;99.90;;;;;;2059163;28;19956;-67
2022/04/03 04:29:11;;;;;;;;;;;1.90;99.90;;;;;;2057613;28;19913;-67
2022/04/03 04:30:13;;;;;;;;;;;1.90;99.90;;;;;;2058503;28;19996;-67
2022/04/03 04:31:14;;;;;;;;;;;1.90;99.90;;;;;;2061456;28;19910;-67
2022/04/03 04:32:14;;;;;;;;;;;1.90;99.90;;;;;;2057332;28;19920;-67
2022/04/03 04:33:14;;;;;;;;;;;1.90;99.90;;;;;;2060885;28;19906;-67
2022/04/03 04:34:17;;;;;;;;;;;1.80;99.90;;;;;;2060017;28;19906;-67
2022/04/03 04:35:17;;;;;;;;;;;1.80;99.90;;;;;;2058108;28;20393;-67
2022/04/03 04:36:18;;;;;;;;;;;1.80;99.90;;;;;;2058502;28;20332;-67
2022/04/03 04:37:18;;;;;;;;;;;1.80;99.90;;;;;;2058598;28;19973;-67
2022/04/03 04:38:19;;;;;;;;;;;1.80;99.90;;;;;;2057856;28;20022;-67
2022/04/03 04:39:21;;;;;;;;;;;1.80;99.90;;;;;;2057494;28;19910;-67
2022/04/03 04:40:21;;;;;;;;;;;1.80;99.90;;;;;;2058315;28;19906;-67
2022/04/03 04:41:22;;;;;;;;;;;1.70;99.90;;;;;;2060839;28;19910;-67
2022/04/03 04:42:22;;;;;;;;;;;1.70;99.90;;;;;;2060500;28;20465;-67
2022/04/03 04:43:23;;;;;;;;;;;1.70;99.90;;;;;;2059494;28;19939;-67
2022/04/03 04:44:23;;;;;;;;;;;1.70;99.90;;;;;;2059493;28;20393;-67
2022/04/03 04:45:25;;;;;;;;;;;1.70;99.90;;;;;;2057078;28;19996;-67
2022/04/03 04:46:26;;;;;;;;;;;1.70;99.90;;;;;;2057239;28;20122;-67
2022/04/03 04:47:26;;;;;;;;;;;1.70;99.90;;;;;;2058115;28;20373;-67
2022/04/03 04:48:27;;;;;;;;;;;1.60;99.90;;;;;;2057859;28;19914;-67
2022/04/03 04:49:28;;;;;;;;;;;1.60;99.90;;;;;;2058682;28;19977;-67
2022/04/03 04:50:29;;;;;;;;;;;1.60;99.90;;;;;;2059472;28;19916;-67
2022/04/03 04:51:29;;;;;;;;;;;1.60;99.90;;;;;;2059154;28;19992;-67
2022/04/03 04:52:30;;;;;;;;;;;1.60;99.90;;;;;;2058940;28;20362;-67
2022/04/03 04:53:30;;;;;;;;;;;1.60;99.90;;;;;;2058117;28;19906;-67
2022/04/03 04:54:31;;;;;;;;;;;1.60;99.90;;;;;;2057814;28;20364;-67
2022/04/03 04:55:31;;;;;;;;;;;1.60;99.90;;;;;;2058397;28;19906;-67
2022/04/03 04:56:33;;;;;;;;;;;1.50;99.90;;;;;;2059997;28;20416;-67
2022/04/03 04:57:34;;;;;;;;;;;1.50;99.90;;;;;;2060383;28;19917;-67
2022/04/03 04:58:35;;;;;;;;;;;1.50;99.90;;;;;;2054613;28;19913;-67
2022/04/03 04:59:36;;;;;;;;;;;1.50;99.90;;;;;;2058908;28;20005;-67
2022/04/03 05:00:36;;;;;;;;;;;1.50;99.90;;;;;;2057608;28;19910;-67
2022/04/03 05:01:37;;;;;;;;;;;1.50;99.90;;;;;;2057961;28;19909;-67
2022/04/03 05:02:37;;;;;;;;;;;1.50;99.90;;;;;;2057624;28;19909;-67
2022/04/03 05:03:38;;;;;;;;;;;1.40;99.90;;;;;;2059238;28;19964;-67
2022/04/03 05:04:38;;;;;;;;;;;1.40;99.90;;;;;;2057573;28;20004;-67
2022/04/03 05:05:39;;;;;;;;;;;1.40;99.90;;;;;;2059170;28;19909;-67
2022/04/03 05:06:40;;;;;;;;;;;1.40;99.90;;;;;;2059659;28;19906;-67
2022/04/03 05:07:41;;;;;;;;;;;1.40;99.90;;;;;;2058979;28;19906;-67
2022/04/03 05:08:42;;;;;;;;;;;1.40;99.90;;;;;;2058205;28;19917;-67
2022/04/03 05:09:43;;;;;;;;;;;1.30;99.90;;;;;;2057914;28;19906;-67
2022/04/03 05:10:44;;;;;;;;;;;1.30;99.90;;;;;;2057728;28;20301;-67
2022/04/03 05:11:48;;;;;;;;;;;1.30;99.90;;;;;;2056436;28;19992;-67
2022/04/03 05:12:49;;;;;;;;;;;1.30;99.90;;;;;;2060511;28;19910;-67
2022/04/03 05:13:49;;;;;;;;;;;1.30;99.90;;;;;;2056972;28;19952;-67
2022/04/03 05:14:50;;;;;;;;;;;1.30;99.90;;;;;;2059334;28;19910;-67
2022/04/03 05:15:51;;;;;;;;;;;1.30;99.90;;;;;;2058094;28;19913;-67
2022/04/03 05:16:51;;;;;;;;;;;1.20;99.90;;;;;;2058457;28;19937;-67
2022/04/03 05:17:52;;;;;;;;;;;1.30;99.90;;;;;;2057782;28;19914;-67
2022/04/03 05:18:52;;;;;;;;;;;1.20;99.90;;;;;;2057175;28;19910;-67
2022/04/03 05:19:54;;;;;;;;;;;1.20;99.90;;;;;;2060701;28;20439;-67
2022/04/03 05:20:54;;;;;;;;;;;1.20;99.90;;;;;;2060292;28;19913;-67
2022/04/03 05:21:54;;;;;;;;;;;1.20;99.90;;;;;;2058282;28;20122;-67
2022/04/03 05:22:55;;;;;;;;;;;1.20;99.90;;;;;;2059102;28;19919;-67
2022/04/03 05:23:55;;;;;;;;;;;1.20;99.90;;;;;;2058927;28;19914;-67
2022/04/03 05:24:56;;;;;;;;;;;1.20;99.90;;;;;;2057989;28;19945;-67
2022/04/03 05:25:57;;;;;;;;;;;1.20;99.90;;;;;;2057401;28;19916;-67
2022/04/03 05:26:57;;;;;;;;;;;1.20;99.90;;;;;;2057143;28;19964;-67
2022/04/03 05:27:58;;;;;;;;;;;1.10;99.90;;;;;;2060292;28;19905;-67
2022/04/03 05:28:58;;;;;;;;;;;1.20;99.90;;;;;;2059203;28;19918;-67
2022/04/03 05:29:59;;;;;;;;;;;1.10;99.90;;;;;;2059131;28;19906;-67
2022/04/03 05:30:59;;;;;;;;;;;1.10;99.90;;;;;;2058603;28;19942;-67
2022/04/03 05:32:00;;;;;;;;;;;1.10;99.90;;;;;;2056756;28;19918;-67
2022/04/03 05:33:00;;;;;;;;;;;1.10;99.90;;;;;;2056494;28;20391;-67
2022/04/03 05:34:01;;;;;;;;;;;1.10;99.90;;;;;;2056836;28;20000;-67
2022/04/03 05:35:02;;;;;;;;;;;1.10;99.90;;;;;;2056311;28;19906;-67
2022/04/03 05:36:02;;;;;;;;;;;1.10;99.90;;;;;;2056319;28;20541;-67
2022/04/03 05:37:03;;;;;;;;;;;1.10;99.90;;;;;;2056936;28;19906;-67
2022/04/03 05:38:04;;;;;;;;;;;1.10;99.90;;;;;;2056440;28;20333;-67
2022/04/03 05:39:05;;;;;;;;;;;1.10;99.90;;;;;;2056811;28;20028;-67
2022/04/03 05:40:07;;;;;;;;;;;1.10;99.90;;;;;;2058733;28;19906;-67
2022/04/03 05:41:07;;;;;;;;;;;1.10;99.90;;;;;;2058042;28;19917;-67
2022/04/03 05:42:08;;;;;;;;;;;1.10;99.90;;;;;;2057790;28;19910;-67
2022/04/03 05:43:08;;;;;;;;;;;1.10;99.90;;;;;;2056999;28;19906;-67
2022/04/03 05:44:09;;;;;;;;;;;1.00;99.90;;;;;;2060560;28;20420;-67
2022/04/03 05:45:09;;;;;;;;;;;1.00;99.90;;;;;;2059364;28;19910;-67
2022/04/03 05:46:10;;;;;;;;;;;1.00;99.90;;;;;;2059366;28;19910;-67
2022/04/03 05:47:10;;;;;;;;;;;1.00;99.90;;;;;;2058910;28;19910;-67
2022/04/03 05:48:11;;;;;;;;;;;1.00;99.90;;;;;;2054610;28;20424;-67
2022/04/03 05:49:12;;;;;;;;;;;1.00;99.90;;;;;;2055755;28;20005;-67
2022/04/03 05:50:14;;;;;;;;;;;1.00;99.90;;;;;;2056709;28;19910;-67
2022/04/03 05:51:15;;;;;;;;;;;1.00;99.90;;;;;;2054586;28;20265;-67
2022/04/03 05:52:16;;;;;;;;;;;1.00;99.90;;;;;;2057002;28;19910;-67
2022/04/03 05:53:16;;;;;;;;;;;1.00;99.90;;;;;;2056662;28;20388;-67
2022/04/03 05:54:17;;;;;;;;;;;1.00;99.90;;;;;;2056570;28;19914;-67
2022/04/03 05:55:18;;;;;;;;;;;1.00;99.90;;;;;;2056504;28;19916;-67
2022/04/03 05:56:20;;;;;;;;;;;1.00;99.90;;;;;;2056576;28;19945;-67
2022/04/03 05:57:21;;;;;;;;;;;1.00;99.90;;;;;;2057079;28;19918;-67
2022/04/03 05:58:21;;;;;;;;;;;1.00;99.90;;;;;;2056824;28;19951;-67
2022/04/03 05:59:22;;;;;;;;;;;1.00;99.90;;;;;;2057715;28;20361;-67